Main page
METAR-TAF:

METAR-TAF

Airports :

Childress Municipal Airport

Childress, Texas, United States

latitude: 34-25-39N, longitude: 100-17-00W, elevation: 1952 ft

Current weather observation

The report was made 55 minutes ago, at 15:53 UTC
Wind 17 mph from the South with gusts up to 28 mph
Temperature 84°F
Humidity 55%
Pressure 29.94 in. Hg
Visibility: 10 miles
Clear sky

METAR: KCDS 151553Z AUTO 19015G24KT 10SM CLR 29/19 A2994 RMK AO2 SLP109 T02940194

Time: 11:48 (16:48 UTC)

Forecast

The report was made 2 hours and 17 minutes ago, at 14:31 UTC
Forecast valid from 15 at 15 UTC to 16 at 12 UTC
Wind 10 mph from the South/Southeast
Visibility: 6 miles
Scattered clouds at a height of 12000 ft
Broken clouds at a height of 25000 ft
From 15 at 1700 UTC
Wind 13 mph from the South
Visibility: 6 miles
Few clouds at a height of 25000 ft

TAF: KCDS 151431Z 1515/1612 15009KT P6SM SCT120 BKN250 FM151700 18011KT P6SM FEW250

Weather observations and forecasts of more than 4000 airports (METAR and TAF reports).

The available stations are represented by yellow and red dots on the map.

Hover mouse over dot to see the name of the station.

Then click to see weather observations and forecasts.

To change the map : click on the green buttons with a black cross to zoom in, on the green button with a dash to zoom out, or on the green arrows for adjacent maps.


METAR-TAF: